sensor_id;sensor_type;location;lat;lon;timestamp;temperature;humidity
20957;DHT22;10637;47.970;7.830;2024-01-16T00:02:11;-2.10;99.90
20957;DHT22;10637;47.970;7.830;2024-01-16T00:07:13;-2.00;99.90
20957;DHT22;10637;47.970;7.830;2024-01-16T00:12:14;-1.90;99.90
20957;DHT22;10637;47.970;7.830;2024-01-16T00:17:17;-2.20;99.90
20957;DHT22;10637;47.970;7.830;2024-01-16T00:22:18;-2.20;99.90
20957;DHT22;10637;47.970;7.830;2024-01-16T00:27:20;-2.10;99.90
20957;DHT22;10637;47.970;7.830;2024-01-16T00:32:22;-2.00;99.90
20957;DHT22;10637;47.970;7.830;2024-01-16T00:37:24;-1.90;99.90
20957;DHT22;10637;47.970;7.830;2024-01-16T00:42:26;-1.90;99.90
20957;DHT22;10637;47.970;7.830;2024-01-16T00:47:28;-1.80;99.90
20957;DHT22;10637;47.970;7.830;2024-01-16T00:52:30;-1.80;99.90
20957;DHT22;10637;47.970;7.830;2024-01-16T00:57:32;-1.80;99.90
20957;DHT22;10637;47.970;7.830;2024-01-16T01:02:34;-1.90;99.90
20957;DHT22;10637;47.970;7.830;2024-01-16T01:07:35;-2.30;99.90
20957;DHT22;10637;47.970;7.830;2024-01-16T01:12:37;-2.30;99.90
20957;DHT22;10637;47.970;7.830;2024-01-16T01:17:39;-2.30;99.90
20957;DHT22;10637;47.970;7.830;2024-01-16T01:22:43;-2.30;99.90
20957;DHT22;10637;47.970;7.830;2024-01-16T01:27:45;-2.70;99.90
20957;DHT22;10637;47.970;7.830;2024-01-16T01:32:47;-2.80;99.90
20957;DHT22;10637;47.970;7.830;2024-01-16T01:37:49;-2.60;99.90
20957;DHT22;10637;47.970;7.830;2024-01-16T01:42:51;-2.90;99.90
20957;DHT22;10637;47.970;7.830;2024-01-16T01:47:52;-3.00;99.90
20957;DHT22;10637;47.970;7.830;2024-01-16T01:52:55;-2.90;99.90
20957;DHT22;10637;47.970;7.830;2024-01-16T01:57:56;-2.90;99.90
20957;DHT22;10637;47.970;7.830;2024-01-16T02:02:58;-2.80;99.90
20957;DHT22;10637;47.970;7.830;2024-01-16T02:08:00;-2.80;99.90
20957;DHT22;10637;47.970;7.830;2024-01-16T02:13:02;-2.60;99.90
20957;DHT22;10637;47.970;7.830;2024-01-16T02:18:03;-2.50;99.90
20957;DHT22;10637;47.970;7.830;2024-01-16T02:23:07;-2.60;99.90
20957;DHT22;10637;47.970;7.830;2024-01-16T02:28:10;-2.50;99.90
20957;DHT22;10637;47.970;7.830;2024-01-16T02:33:11;-2.70;99.90
20957;DHT22;10637;47.970;7.830;2024-01-16T02:38:14;-2.80;99.90
20957;DHT22;10637;47.970;7.830;2024-01-16T02:43:16;-2.90;99.90
20957;DHT22;10637;47.970;7.830;2024-01-16T02:48:17;-2.70;99.90
20957;DHT22;10637;47.970;7.830;2024-01-16T02:53:19;-2.70;99.90
20957;DHT22;10637;47.970;7.830;2024-01-16T02:58:21;-3.10;99.90
20957;DHT22;10637;47.970;7.830;2024-01-16T03:03:23;-2.80;99.90
20957;DHT22;10637;47.970;7.830;2024-01-16T03:08:26;-2.70;99.90
20957;DHT22;10637;47.970;7.830;2024-01-16T03:13:27;-2.90;99.90
20957;DHT22;10637;47.970;7.830;2024-01-16T03:18:29;-3.00;99.90
20957;DHT22;10637;47.970;7.830;2024-01-16T03:23:31;-3.10;99.90
20957;DHT22;10637;47.970;7.830;2024-01-16T03:28:33;-2.90;99.90
20957;DHT22;10637;47.970;7.830;2024-01-16T03:33:34;-3.00;99.90
20957;DHT22;10637;47.970;7.830;2024-01-16T03:38:37;-3.30;99.90
20957;DHT22;10637;47.970;7.830;2024-01-16T03:43:40;-3.50;99.90
20957;DHT22;10637;47.970;7.830;2024-01-16T03:48:42;-3.20;99.90
20957;DHT22;10637;47.970;7.830;2024-01-16T03:53:43;-3.30;99.90
20957;DHT22;10637;47.970;7.830;2024-01-16T03:58:45;-3.20;99.90
20957;DHT22;10637;47.970;7.830;2024-01-16T04:03:47;-3.10;99.90
20957;DHT22;10637;47.970;7.830;2024-01-16T04:08:49;-3.20;99.90
20957;DHT22;10637;47.970;7.830;2024-01-16T04:13:50;-3.20;99.90
20957;DHT22;10637;47.970;7.830;2024-01-16T04:18:52;-3.10;99.90
20957;DHT22;10637;47.970;7.830;2024-01-16T04:23:54;-2.90;99.90
20957;DHT22;10637;47.970;7.830;2024-01-16T04:28:56;-2.80;99.90
20957;DHT22;10637;47.970;7.830;2024-01-16T04:33:57;-2.80;99.90
20957;DHT22;10637;47.970;7.830;2024-01-16T04:38:59;-3.00;99.90
20957;DHT22;10637;47.970;7.830;2024-01-16T04:44:02;-2.90;99.90
20957;DHT22;10637;47.970;7.830;2024-01-16T04:49:04;-2.90;99.90
20957;DHT22;10637;47.970;7.830;2024-01-16T04:54:06;-2.90;99.90
20957;DHT22;10637;47.970;7.830;2024-01-16T04:59:09;-2.80;99.90
20957;DHT22;10637;47.970;7.830;2024-01-16T05:04:10;-2.90;99.90
20957;DHT22;10637;47.970;7.830;2024-01-16T05:09:12;-3.00;99.90
20957;DHT22;10637;47.970;7.830;2024-01-16T05:14:14;-2.90;99.90
20957;DHT22;10637;47.970;7.830;2024-01-16T05:19:16;-2.90;99.90
20957;DHT22;10637;47.970;7.830;2024-01-16T05:24:18;-3.10;99.90
20957;DHT22;10637;47.970;7.830;2024-01-16T05:29:19;-3.10;99.90
20957;DHT22;10637;47.970;7.830;2024-01-16T05:34:21;-3.30;99.90
20957;DHT22;10637;47.970;7.830;2024-01-16T05:39:23;-3.30;99.90
20957;DHT22;10637;47.970;7.830;2024-01-16T05:44:25;-3.30;99.90
20957;DHT22;10637;47.970;7.830;2024-01-16T05:49:27;-3.10;99.90
20957;DHT22;10637;47.970;7.830;2024-01-16T05:54:28;-3.40;99.90
20957;DHT22;10637;47.970;7.830;2024-01-16T05:59:30;-3.60;99.90
20957;DHT22;10637;47.970;7.830;2024-01-16T06:04:32;-3.70;99.90
20957;DHT22;10637;47.970;7.830;2024-01-16T06:09:38;-3.30;99.90
20957;DHT22;10637;47.970;7.830;2024-01-16T06:14:41;-3.20;99.90
20957;DHT22;10637;47.970;7.830;2024-01-16T06:19:43;-3.30;99.90
20957;DHT22;10637;47.970;7.830;2024-01-16T06:24:45;-3.20;99.90
20957;DHT22;10637;47.970;7.830;2024-01-16T06:29:47;-3.10;99.90
20957;DHT22;10637;47.970;7.830;2024-01-16T06:34:49;-3.10;99.90
20957;DHT22;10637;47.970;7.830;2024-01-16T06:39:51;-3.10;99.90
20957;DHT22;10637;47.970;7.830;2024-01-16T06:44:53;-3.30;99.90
20957;DHT22;10637;47.970;7.830;2024-01-16T06:49:55;-3.40;99.90
20957;DHT22;10637;47.970;7.830;2024-01-16T06:54:57;-3.50;99.90
20957;DHT22;10637;47.970;7.830;2024-01-16T06:59:58;-3.50;99.90
20957;DHT22;10637;47.970;7.830;2024-01-16T07:05:00;-3.30;99.90
20957;DHT22;10637;47.970;7.830;2024-01-16T07:10:02;-3.20;99.90
20957;DHT22;10637;47.970;7.830;2024-01-16T07:15:05;-3.40;99.90
20957;DHT22;10637;47.970;7.830;2024-01-16T07:20:07;-3.50;99.90
20957;DHT22;10637;47.970;7.830;2024-01-16T07:25:09;-3.60;99.90
20957;DHT22;10637;47.970;7.830;2024-01-16T07:30:11;-3.80;99.90
20957;DHT22;10637;47.970;7.830;2024-01-16T07:35:14;-3.80;99.90
20957;DHT22;10637;47.970;7.830;2024-01-16T07:40:15;-3.80;99.90
20957;DHT22;10637;47.970;7.830;2024-01-16T07:45:18;-3.90;99.90
20957;DHT22;10637;47.970;7.830;2024-01-16T07:50:20;-3.60;99.90
20957;DHT22;10637;47.970;7.830;2024-01-16T07:55:22;-3.50;99.90
20957;DHT22;10637;47.970;7.830;2024-01-16T08:00:25;-3.50;99.90
20957;DHT22;10637;47.970;7.830;2024-01-16T08:05:29;-3.50;99.90
20957;DHT22;10637;47.970;7.830;2024-01-16T08:10:32;-3.40;99.90
20957;DHT22;10637;47.970;7.830;2024-01-16T08:15:33;-3.40;99.90
20957;DHT22;10637;47.970;7.830;2024-01-16T08:20:36;-3.50;99.90
20957;DHT22;10637;47.970;7.830;2024-01-16T08:25:38;-3.50;99.90
20957;DHT22;10637;47.970;7.830;2024-01-16T08:30:39;-3.40;99.90
20957;DHT22;10637;47.970;7.830;2024-01-16T08:35:41;-3.20;99.90
20957;DHT22;10637;47.970;7.830;2024-01-16T08:40:43;-3.00;99.90
20957;DHT22;10637;47.970;7.830;2024-01-16T08:45:45;-3.20;99.90
20957;DHT22;10637;47.970;7.830;2024-01-16T08:50:49;-2.80;99.90
20957;DHT22;10637;47.970;7.830;2024-01-16T08:55:51;-2.80;99.90
20957;DHT22;10637;47.970;7.830;2024-01-16T09:00:52;-2.80;99.90
20957;DHT22;10637;47.970;7.830;2024-01-16T09:05:54;-2.40;99.90
20957;DHT22;10637;47.970;7.830;2024-01-16T09:10:56;-1.90;99.90
20957;DHT22;10637;47.970;7.830;2024-01-16T09:15:58;-1.70;99.90
20957;DHT22;10637;47.970;7.830;2024-01-16T09:21:00;-1.50;99.90
20957;DHT22;10637;47.970;7.830;2024-01-16T09:26:02;-1.30;99.90
20957;DHT22;10637;47.970;7.830;2024-01-16T09:31:06;-1.20;99.90
20957;DHT22;10637;47.970;7.830;2024-01-16T09:36:07;-1.10;99.90
20957;DHT22;10637;47.970;7.830;2024-01-16T09:41:10;-0.80;99.90
20957;DHT22;10637;47.970;7.830;2024-01-16T09:46:12;-0.70;99.90
20957;DHT22;10637;47.970;7.830;2024-01-16T09:51:14;-0.30;99.90
20957;DHT22;10637;47.970;7.830;2024-01-16T09:56:17;3.40;99.90
20957;DHT22;10637;47.970;7.830;2024-01-16T10:01:21;6.60;99.90
20957;DHT22;10637;47.970;7.830;2024-01-16T10:06:27;8.00;99.90
20957;DHT22;10637;47.970;7.830;2024-01-16T10:11:29;7.50;99.90
20957;DHT22;10637;47.970;7.830;2024-01-16T10:16:59;7.50;99.90
20957;DHT22;10637;47.970;7.830;2024-01-16T10:22:05;8.20;99.90
20957;DHT22;10637;47.970;7.830;2024-01-16T10:27:08;7.20;99.90
20957;DHT22;10637;47.970;7.830;2024-01-16T10:32:09;6.60;99.90
20957;DHT22;10637;47.970;7.830;2024-01-16T10:37:12;7.30;99.90
20957;DHT22;10637;47.970;7.830;2024-01-16T10:42:15;7.80;99.90
20957;DHT22;10637;47.970;7.830;2024-01-16T10:47:16;8.50;99.90
20957;DHT22;10637;47.970;7.830;2024-01-16T10:52:18;10.20;99.90
20957;DHT22;10637;47.970;7.830;2024-01-16T10:57:24;11.00;99.90
20957;DHT22;10637;47.970;7.830;2024-01-16T11:02:32;12.10;96.60
20957;DHT22;10637;47.970;7.830;2024-01-16T11:07:37;14.10;93.50
20957;DHT22;10637;47.970;7.830;2024-01-16T11:12:41;13.20;91.10
20957;DHT22;10637;47.970;7.830;2024-01-16T11:17:47;12.80;92.20
20957;DHT22;10637;47.970;7.830;2024-01-16T11:22:49;11.10;92.20
20957;DHT22;10637;47.970;7.830;2024-01-16T11:27:52;10.10;94.40
20957;DHT22;10637;47.970;7.830;2024-01-16T11:32:54;10.90;94.80
20957;DHT22;10637;47.970;7.830;2024-01-16T11:38:04;10.90;94.10
20957;DHT22;10637;47.970;7.830;2024-01-16T11:48:36;12.50;92.10
20957;DHT22;10637;47.970;7.830;2024-01-16T11:53:40;12.90;91.90
20957;DHT22;10637;47.970;7.830;2024-01-16T12:04:08;15.60;84.40
20957;DHT22;10637;47.970;7.830;2024-01-16T12:09:14;15.90;83.80
20957;DHT22;10637;47.970;7.830;2024-01-16T12:14:16;18.30;76.30
20957;DHT22;10637;47.970;7.830;2024-01-16T12:19:18;18.20;72.20
20957;DHT22;10637;47.970;7.830;2024-01-16T12:24:20;18.30;71.30
20957;DHT22;10637;47.970;7.830;2024-01-16T12:29:21;19.40;65.90
20957;DHT22;10637;47.970;7.830;2024-01-16T12:34:23;19.90;62.80
20957;DHT22;10637;47.970;7.830;2024-01-16T12:39:25;20.70;59.80
20957;DHT22;10637;47.970;7.830;2024-01-16T12:44:30;19.20;60.80
20957;DHT22;10637;47.970;7.830;2024-01-16T12:49:32;20.10;59.50
20957;DHT22;10637;47.970;7.830;2024-01-16T12:54:34;20.10;59.20
20957;DHT22;10637;47.970;7.830;2024-01-16T12:59:36;20.10;58.00
20957;DHT22;10637;47.970;7.830;2024-01-16T13:04:37;19.00;58.70
20957;DHT22;10637;47.970;7.830;2024-01-16T13:09:39;19.70;57.20
20957;DHT22;10637;47.970;7.830;2024-01-16T13:14:41;20.40;55.60
20957;DHT22;10637;47.970;7.830;2024-01-16T13:19:42;20.20;56.70
20957;DHT22;10637;47.970;7.830;2024-01-16T13:24:44;20.10;55.60
20957;DHT22;10637;47.970;7.830;2024-01-16T13:29:58;19.50;57.10
20957;DHT22;10637;47.970;7.830;2024-01-16T13:35:00;19.70;55.80
20957;DHT22;10637;47.970;7.830;2024-01-16T13:40:02;20.50;54.20
20957;DHT22;10637;47.970;7.830;2024-01-16T13:45:05;20.70;52.10
20957;DHT22;10637;47.970;7.830;2024-01-16T13:50:07;20.10;53.50
20957;DHT22;10637;47.970;7.830;2024-01-16T13:55:10;20.20;53.20
20957;DHT22;10637;47.970;7.830;2024-01-16T14:00:13;19.00;54.50
20957;DHT22;10637;47.970;7.830;2024-01-16T14:05:17;19.00;55.40
20957;DHT22;10637;47.970;7.830;2024-01-16T14:10:21;19.50;54.90
20957;DHT22;10637;47.970;7.830;2024-01-16T14:15:23;19.40;54.70
20957;DHT22;10637;47.970;7.830;2024-01-16T14:20:25;18.60;54.70
20957;DHT22;10637;47.970;7.830;2024-01-16T14:25:30;18.70;55.30
20957;DHT22;10637;47.970;7.830;2024-01-16T14:30:34;18.10;56.10
20957;DHT22;10637;47.970;7.830;2024-01-16T14:35:36;17.20;56.80
20957;DHT22;10637;47.970;7.830;2024-01-16T14:40:38;15.60;59.40
20957;DHT22;10637;47.970;7.830;2024-01-16T14:45:40;15.70;60.60
20957;DHT22;10637;47.970;7.830;2024-01-16T14:50:42;16.10;59.70
20957;DHT22;10637;47.970;7.830;2024-01-16T14:55:45;14.90;61.20
20957;DHT22;10637;47.970;7.830;2024-01-16T15:00:47;14.10;63.80
20957;DHT22;10637;47.970;7.830;2024-01-16T15:05:51;10.40;69.60
20957;DHT22;10637;47.970;7.830;2024-01-16T15:10:57;7.90;79.00
20957;DHT22;10637;47.970;7.830;2024-01-16T15:16:01;6.40;83.90
20957;DHT22;10637;47.970;7.830;2024-01-16T15:21:03;5.30;86.90
20957;DHT22;10637;47.970;7.830;2024-01-16T15:26:07;4.60;91.00
20957;DHT22;10637;47.970;7.830;2024-01-16T15:31:09;4.10;92.90
20957;DHT22;10637;47.970;7.830;2024-01-16T15:36:10;3.40;94.60
20957;DHT22;10637;47.970;7.830;2024-01-16T15:41:12;3.20;95.90
20957;DHT22;10637;47.970;7.830;2024-01-16T15:46:14;2.90;97.10
20957;DHT22;10637;47.970;7.830;2024-01-16T15:51:18;2.70;98.20
20957;DHT22;10637;47.970;7.830;2024-01-16T15:56:19;2.30;99.60
20957;DHT22;10637;47.970;7.830;2024-01-16T16:01:21;2.00;99.90
20957;DHT22;10637;47.970;7.830;2024-01-16T16:06:23;1.60;99.90
20957;DHT22;10637;47.970;7.830;2024-01-16T16:11:25;0.70;99.90
20957;DHT22;10637;47.970;7.830;2024-01-16T16:16:27;0.80;99.90
20957;DHT22;10637;47.970;7.830;2024-01-16T16:21:30;0.20;99.90
20957;DHT22;10637;47.970;7.830;2024-01-16T16:26:34;0.30;99.90
20957;DHT22;10637;47.970;7.830;2024-01-16T16:31:38;0.10;99.90
20957;DHT22;10637;47.970;7.830;2024-01-16T16:36:41;-0.10;99.90
20957;DHT22;10637;47.970;7.830;2024-01-16T16:41:43;-0.30;99.90
20957;DHT22;10637;47.970;7.830;2024-01-16T16:46:45;-0.70;99.90
20957;DHT22;10637;47.970;7.830;2024-01-16T16:51:47;-0.50;99.90
20957;DHT22;10637;47.970;7.830;2024-01-16T16:56:49;-0.70;99.90
20957;DHT22;10637;47.970;7.830;2024-01-16T17:01:52;-0.50;99.90
20957;DHT22;10637;47.970;7.830;2024-01-16T17:06:56;-0.60;99.90
20957;DHT22;10637;47.970;7.830;2024-01-16T17:11:59;-0.70;99.90
20957;DHT22;10637;47.970;7.830;2024-01-16T17:17:01;-0.90;99.90
20957;DHT22;10637;47.970;7.830;2024-01-16T17:22:04;-1.10;99.90
20957;DHT22;10637;47.970;7.830;2024-01-16T17:27:07;-1.10;99.90
20957;DHT22;10637;47.970;7.830;2024-01-16T17:32:09;-1.10;99.90
20957;DHT22;10637;47.970;7.830;2024-01-16T17:37:11;-1.10;99.90
20957;DHT22;10637;47.970;7.830;2024-01-16T17:42:14;-1.00;99.90
20957;DHT22;10637;47.970;7.830;2024-01-16T17:47:16;-1.00;99.90
20957;DHT22;10637;47.970;7.830;2024-01-16T17:52:20;-1.00;99.90
20957;DHT22;10637;47.970;7.830;2024-01-16T17:57:22;-1.10;99.90
20957;DHT22;10637;47.970;7.830;2024-01-16T18:02:24;-1.30;99.90
20957;DHT22;10637;47.970;7.830;2024-01-16T18:07:26;-1.40;99.90
20957;DHT22;10637;47.970;7.830;2024-01-16T18:12:27;-1.70;99.90
20957;DHT22;10637;47.970;7.830;2024-01-16T18:17:30;-1.60;99.90
20957;DHT22;10637;47.970;7.830;2024-01-16T18:22:31;-1.40;99.90
20957;DHT22;10637;47.970;7.830;2024-01-16T18:27:35;-1.70;99.90
20957;DHT22;10637;47.970;7.830;2024-01-16T18:32:37;-1.90;99.90
20957;DHT22;10637;47.970;7.830;2024-01-16T18:37:40;-1.80;99.90
20957;DHT22;10637;47.970;7.830;2024-01-16T18:42:42;-1.70;99.90
20957;DHT22;10637;47.970;7.830;2024-01-16T18:47:47;-1.80;99.90
20957;DHT22;10637;47.970;7.830;2024-01-16T18:52:52;-1.70;99.90
20957;DHT22;10637;47.970;7.830;2024-01-16T18:57:55;-1.70;99.90
20957;DHT22;10637;47.970;7.830;2024-01-16T19:03:03;-1.70;99.90
20957;DHT22;10637;47.970;7.830;2024-01-16T19:08:05;-1.80;99.90
20957;DHT22;10637;47.970;7.830;2024-01-16T19:13:08;-1.50;99.90
20957;DHT22;10637;47.970;7.830;2024-01-16T19:18:12;-1.70;99.90
20957;DHT22;10637;47.970;7.830;2024-01-16T19:23:14;-1.80;99.90
20957;DHT22;10637;47.970;7.830;2024-01-16T19:28:18;-1.70;99.90
20957;DHT22;10637;47.970;7.830;2024-01-16T19:33:20;-1.70;99.90
20957;DHT22;10637;47.970;7.830;2024-01-16T19:38:22;-1.80;99.90
20957;DHT22;10637;47.970;7.830;2024-01-16T19:43:24;-1.70;99.90
20957;DHT22;10637;47.970;7.830;2024-01-16T19:48:26;-1.50;99.90
20957;DHT22;10637;47.970;7.830;2024-01-16T19:53:27;-1.40;99.90
20957;DHT22;10637;47.970;7.830;2024-01-16T19:58:29;-1.60;99.90
20957;DHT22;10637;47.970;7.830;2024-01-16T20:03:32;-1.50;99.90
20957;DHT22;10637;47.970;7.830;2024-01-16T20:08:34;-1.50;99.90
20957;DHT22;10637;47.970;7.830;2024-01-16T20:13:36;-1.40;99.90
20957;DHT22;10637;47.970;7.830;2024-01-16T20:18:42;-1.50;99.90
20957;DHT22;10637;47.970;7.830;2024-01-16T20:23:44;-1.40;99.90
20957;DHT22;10637;47.970;7.830;2024-01-16T20:28:46;-1.30;99.90
20957;DHT22;10637;47.970;7.830;2024-01-16T20:33:48;-1.00;99.90
20957;DHT22;10637;47.970;7.830;2024-01-16T20:38:53;-0.90;99.90
20957;DHT22;10637;47.970;7.830;2024-01-16T20:43:55;-0.90;99.90
20957;DHT22;10637;47.970;7.830;2024-01-16T20:48:56;-0.50;99.90
20957;DHT22;10637;47.970;7.830;2024-01-16T20:53:59;-0.50;99.90
20957;DHT22;10637;47.970;7.830;2024-01-16T20:59:00;-0.30;99.90
20957;DHT22;10637;47.970;7.830;2024-01-16T21:04:02;-0.30;99.90
20957;DHT22;10637;47.970;7.830;2024-01-16T21:09:04;-0.30;99.90
20957;DHT22;10637;47.970;7.830;2024-01-16T21:14:06;-0.30;99.90
20957;DHT22;10637;47.970;7.830;2024-01-16T21:19:08;-0.10;99.90
20957;DHT22;10637;47.970;7.830;2024-01-16T21:24:11;-0.10;99.90
20957;DHT22;10637;47.970;7.830;2024-01-16T21:29:15;0.10;99.90
20957;DHT22;10637;47.970;7.830;2024-01-16T21:34:17;0.00;99.90
20957;DHT22;10637;47.970;7.830;2024-01-16T21:39:19;0.10;99.90
20957;DHT22;10637;47.970;7.830;2024-01-16T21:44:24;0.30;99.90
20957;DHT22;10637;47.970;7.830;2024-01-16T21:49:26;0.50;99.90
20957;DHT22;10637;47.970;7.830;2024-01-16T21:54:28;0.70;99.90
20957;DHT22;10637;47.970;7.830;2024-01-16T21:59:33;0.70;99.90
20957;DHT22;10637;47.970;7.830;2024-01-16T22:04:37;0.90;99.90
20957;DHT22;10637;47.970;7.830;2024-01-16T22:09:38;0.80;99.90
20957;DHT22;10637;47.970;7.830;2024-01-16T22:14:40;1.00;99.90
20957;DHT22;10637;47.970;7.830;2024-01-16T22:19:43;0.90;99.90
20957;DHT22;10637;47.970;7.830;2024-01-16T22:24:45;0.80;99.90
20957;DHT22;10637;47.970;7.830;2024-01-16T22:29:46;1.00;99.90
20957;DHT22;10637;47.970;7.830;2024-01-16T22:34:48;1.10;99.90
20957;DHT22;10637;47.970;7.830;2024-01-16T22:39:50;1.30;99.90
20957;DHT22;10637;47.970;7.830;2024-01-16T22:44:52;1.40;99.90
20957;DHT22;10637;47.970;7.830;2024-01-16T22:49:54;1.40;99.90
20957;DHT22;10637;47.970;7.830;2024-01-16T22:54:55;1.50;99.90
20957;DHT22;10637;47.970;7.830;2024-01-16T22:59:57;1.40;99.90
20957;DHT22;10637;47.970;7.830;2024-01-16T23:04:59;1.30;99.90
20957;DHT22;10637;47.970;7.830;2024-01-16T23:10:01;1.30;99.90
20957;DHT22;10637;47.970;7.830;2024-01-16T23:15:04;1.30;99.90
20957;DHT22;10637;47.970;7.830;2024-01-16T23:20:07;1.20;99.90
20957;DHT22;10637;47.970;7.830;2024-01-16T23:25:10;1.30;99.90
20957;DHT22;10637;47.970;7.830;2024-01-16T23:30:12;1.40;99.90
20957;DHT22;10637;47.970;7.830;2024-01-16T23:35:14;1.40;99.90
20957;DHT22;10637;47.970;7.830;2024-01-16T23:40:16;1.30;99.90
20957;DHT22;10637;47.970;7.830;2024-01-16T23:45:19;1.30;99.90
20957;DHT22;10637;47.970;7.830;2024-01-16T23:50:34;1.30;99.90
20957;DHT22;10637;47.970;7.830;2024-01-16T23:55:36;1.00;99.90
